Time;durP1;ratioP1;P1;durP2;ratioP2;P2;SDS_P1;SDS_P2;PMS_P1;PMS_P2;Temp;Humidity;BMP_temperature;BMP_pressure;BME280_temperature;BME280_humidity;BME280_pressure;Samples;Min_cycle;Max_cycle;Signal;HPM_P1;HPM_P2
2022/05/30 00:01:15;;;;;;;0.93;0.80;;;;;;;9.17;73.74;101295.03;6216084;23;20005;-89
2022/05/30 00:03:41;;;;;;;0.93;0.90;;;;;;;9.18;73.38;101295.88;6216028;23;20008;-89
2022/05/30 00:06:09;;;;;;;2.13;1.10;;;;;;;9.22;74.13;101297.59;6216262;23;20028;-89
2022/05/30 00:08:35;;;;;;;0.80;0.80;;;;;;;9.20;74.51;101291.56;6216475;23;20441;-89
2022/05/30 00:11:03;;;;;;;1.37;0.93;;;;;;;9.19;73.76;101290.69;6216330;23;20005;-89
2022/05/30 00:13:33;;;;;;;0.60;0.60;;;;;;;9.22;73.30;101292.44;6215954;23;20027;-89
2022/05/30 00:16:03;;;;;;;0.73;0.70;;;;;;;9.25;73.65;101297.56;6216130;23;20322;-89
2022/05/30 00:18:29;;;;;;;1.13;0.63;;;;;;;9.26;73.28;101289.81;6216809;23;20007;-89
2022/05/30 00:20:54;;;;;;;0.90;0.50;;;;;;;9.30;73.31;101295.84;6215458;23;20080;-89
2022/05/30 00:23:19;;;;;;;0.67;0.63;;;;;;;9.32;73.06;101290.66;6216585;23;20032;-89
2022/05/30 00:25:44;;;;;;;0.80;0.80;;;;;;;9.33;73.08;101293.25;6215768;23;20059;-89
2022/05/30 00:28:10;;;;;;;2.87;1.10;;;;;;;9.34;73.05;101294.09;6215150;23;20430;-89
2022/05/30 00:30:37;;;;;;;1.45;0.90;;;;;;;9.35;73.22;101288.91;6216297;23;20047;-89
2022/05/30 00:33:02;;;;;;;0.82;0.82;;;;;;;9.35;73.01;101294.09;6216598;23;20039;-88
2022/05/30 00:35:29;;;;;;;1.60;0.83;;;;;;;9.33;73.09;101293.25;6215961;23;20369;-89
2022/05/30 00:37:56;;;;;;;0.50;0.50;;;;;;;9.33;73.20;101289.78;6216206;23;20079;-89
2022/05/30 00:40:21;;;;;;;0.70;0.70;;;;;;;9.32;72.87;101288.06;6215790;23;20032;-87
2022/05/30 00:42:49;;;;;;;1.23;0.70;;;;;;;9.31;73.02;101281.16;6215260;23;20005;-89
2022/05/30 00:45:15;;;;;;;0.98;0.90;;;;;;;9.28;72.87;101289.81;6216554;23;20326;-89
2022/05/30 00:47:41;;;;;;;0.60;0.60;;;;;;;9.24;73.00;101281.19;6215766;23;19997;-88
2022/05/30 00:50:07;;;;;;;1.25;0.80;;;;;;;9.22;72.97;101282.91;6216286;23;20236;-88
2022/05/30 00:52:38;;;;;;;0.95;0.80;;;;;;;9.22;72.95;101282.06;6215523;23;20036;-89
2022/05/30 00:55:09;;;;;;;2.00;0.80;;;;;;;9.20;72.90;101286.38;6216208;23;20000;-88
2022/05/30 00:57:37;;;;;;;1.13;0.73;;;;;;;9.15;72.80;101280.34;6216245;23;20011;-89
2022/05/30 01:00:11;;;;;;;0.75;0.75;;;;;;;9.11;73.05;101276.91;6216029;23;20319;-89
2022/05/30 01:02:39;;;;;;;0.70;0.70;;;;;;;9.07;73.18;101272.59;6214366;23;20487;-88
2022/05/30 01:07:52;;;;;;;0.70;0.70;;;;;;;9.05;73.46;101274.34;6215642;23;20106;-89
2022/05/30 01:10:21;;;;;;;1.23;0.93;;;;;;;8.98;73.63;101270.91;6215147;23;20352;-89
2022/05/30 01:12:52;;;;;;;1.05;0.93;;;;;;;8.94;73.71;101270.03;6215336;23;20005;-89
2022/05/30 01:15:22;;;;;;;1.58;0.95;;;;;;;8.92;73.58;101266.59;6216375;23;20009;-88
2022/05/30 01:18:10;;;;;;;2.63;0.93;;;;;;;8.92;74.98;101273.47;6214938;23;20005;-89
2022/05/30 01:20:47;;;;;;;1.35;1.05;;;;;;;8.84;75.85;101273.47;6216052;23;20088;-88
2022/05/30 01:23:43;;;;;;;2.28;1.50;;;;;;;8.72;77.01;101273.53;6214972;23;20425;-89
2022/05/30 01:26:29;;;;;;;4.80;1.48;;;;;;;8.63;77.05;101276.97;6216039;23;20376;-89
2022/05/30 01:29:22;;;;;;;2.80;1.80;;;;;;;8.56;77.77;101273.50;6215404;23;20414;-89
2022/05/30 01:31:47;;;;;;;1.55;1.17;;;;;;;8.53;75.94;101278.69;6213504;23;20015;-89
2022/05/30 01:34:13;;;;;;;3.13;1.50;;;;;;;8.56;75.34;101267.47;6216008;23;20004;-89
2022/05/30 01:36:38;;;;;;;1.73;1.10;;;;;;;8.62;75.34;101267.47;6215400;23;20357;-87
2022/05/30 01:39:04;;;;;;;0.97;0.93;;;;;;;8.66;75.24;101266.63;6216122;23;20012;-88
2022/05/30 01:41:30;;;;;;;1.17;1.07;;;;;;;8.68;75.20;101258.84;6215000;23;20329;-89
2022/05/30 01:43:55;;;;;;;1.20;0.93;;;;;;;8.69;74.94;101256.25;6215477;23;20436;-89
2022/05/30 01:46:23;;;;;;;0.50;0.50;;;;;;;8.72;74.81;101247.66;6216313;23;20063;-89
2022/05/30 01:48:51;;;;;;;0.70;0.70;;;;;;;8.74;74.81;101253.66;6215586;23;20033;-89
2022/05/30 01:51:19;;;;;;;0.90;0.80;;;;;;;8.75;74.95;101253.66;6215674;23;20005;-89
2022/05/30 01:53:46;;;;;;;1.30;0.90;;;;;;;8.77;74.72;101253.66;6215552;23;20005;-89
2022/05/30 01:56:12;;;;;;;0.82;0.82;;;;;;;8.77;74.74;101259.72;6215920;23;20004;-88
2022/05/30 01:58:37;;;;;;;1.03;0.97;;;;;;;8.76;74.65;101252.81;6215052;23;20402;-88
2022/05/30 02:01:14;;;;;;;1.45;1.10;;;;;;;8.76;74.55;101249.34;6215071;23;20012;-87
2022/05/30 02:03:39;;;;;;;1.95;1.00;;;;;;;8.74;74.55;101248.47;6215867;23;20395;-89
2022/05/30 02:06:04;;;;;;;0.77;0.77;;;;;;;8.72;74.72;101248.50;6215302;23;20001;-89
2022/05/30 02:08:29;;;;;;;0.88;0.88;;;;;;;8.71;74.60;101245.91;6215968;23;20033;-88
2022/05/30 02:10:55;;;;;;;0.73;0.73;;;;;;;8.68;74.62;101249.34;6215397;23;20004;-88
2022/05/30 02:13:20;;;;;;;2.20;1.30;;;;;;;8.65;74.67;101241.59;6214949;23;20001;-89
2022/05/30 02:18:29;;;;;;;0.90;0.90;;;;;;;8.60;74.72;101249.38;6215742;23;20023;-88
2022/05/30 02:20:54;;;;;;;1.20;1.10;;;;;;;8.58;74.67;101245.94;6215732;23;20005;-89
2022/05/30 02:23:20;;;;;;;2.03;1.17;;;;;;;8.55;74.83;101243.34;6215498;23;20303;-89
2022/05/30 02:25:45;;;;;;;1.13;1.03;;;;;;;8.54;74.71;101249.38;6214783;23;20036;-89
2022/05/30 02:28:10;;;;;;;1.10;1.10;;;;;;;8.52;74.79;101255.41;6214819;23;20001;-89
2022/05/30 02:30:39;;;;;;;1.13;0.98;;;;;;;8.52;75.09;101255.41;6215433;23;20012;-89
2022/05/30 02:38:35;;;;;;;1.08;0.98;;;;;;;8.43;74.74;101244.19;6217302;23;20015;-89
2022/05/30 02:41:01;;;;;;;0.60;0.60;;;;;;;8.40;75.08;101246.75;6216251;23;20349;-89
2022/05/30 02:43:26;;;;;;;1.00;1.00;;;;;;;8.38;75.17;101242.44;6217477;23;20004;-88
2022/05/30 02:45:51;;;;;;;1.20;1.10;;;;;;;8.34;75.11;101242.44;6216206;23;19996;-88
2022/05/30 02:48:17;;;;;;;1.00;1.00;;;;;;;8.34;75.27;101244.16;6217267;23;20004;-88
2022/05/30 02:50:44;;;;;;;1.60;1.00;;;;;;;8.32;75.36;101238.13;6217338;23;20074;-89
2022/05/30 02:53:10;;;;;;;1.45;0.90;;;;;;;8.31;75.24;101242.44;6218081;23;20015;-88
2022/05/30 02:55:35;;;;;;;1.23;1.00;;;;;;;8.27;75.19;101240.72;6216032;23;20032;-88
2022/05/30 02:58:00;;;;;;;1.03;0.90;;;;;;;8.25;75.33;101239.84;6217026;23;20001;-89
2022/05/30 03:00:26;;;;;;;1.40;0.93;;;;;;;8.23;75.50;101235.53;6217132;23;20438;-88
2022/05/30 03:02:52;;;;;;;1.73;1.20;;;;;;;8.24;75.24;101243.31;6216595;23;20012;-89
2022/05/30 03:05:17;;;;;;;1.67;1.30;;;;;;;8.24;75.57;101242.41;6217373;23;20004;-89
2022/05/30 03:07:42;;;;;;;1.73;1.37;;;;;;;8.23;75.97;101239.00;6217497;23;20005;-88
2022/05/30 03:10:08;;;;;;;1.30;1.20;;;;;;;8.23;75.62;101248.44;6216148;23;20028;-87
2022/05/30 03:12:33;;;;;;;1.40;1.30;;;;;;;8.21;75.46;101245.88;6217112;23;20019;-88
2022/05/30 03:14:58;;;;;;;1.83;1.25;;;;;;;8.20;75.73;101238.97;6216541;23;20066;-88
2022/05/30 03:17:23;;;;;;;1.50;1.40;;;;;;;8.21;75.61;101251.03;6216191;23;20001;-88
2022/05/30 03:19:51;;;;;;;2.13;1.40;;;;;;;8.21;75.82;101250.19;6216687;23;20020;-88
2022/05/30 03:22:16;;;;;;;1.33;1.20;;;;;;;8.21;75.59;101248.47;6215792;23;20058;-89
2022/05/30 03:24:41;;;;;;;1.33;1.23;;;;;;;8.20;75.78;101246.72;6216812;23;20008;-88
2022/05/30 03:27:07;;;;;;;1.50;1.40;;;;;;;8.23;75.95;101256.22;6216672;23;20008;-88
2022/05/30 03:29:32;;;;;;;1.45;1.35;;;;;;;8.21;75.99;101257.94;6216257;23;20024;-89
2022/05/30 03:31:57;;;;;;;1.40;1.30;;;;;;;8.22;76.03;101249.34;6216392;23;20443;-88
2022/05/30 03:34:22;;;;;;;1.07;0.97;;;;;;;8.21;76.18;101251.03;6217137;23;20007;-88
2022/05/30 03:36:48;;;;;;;1.70;1.30;;;;;;;8.21;76.07;101253.63;6215719;23;20040;-89
2022/05/30 03:39:13;;;;;;;1.40;1.30;;;;;;;8.22;76.20;101257.09;6216934;23;19997;-89
2022/05/30 03:41:39;;;;;;;1.37;1.23;;;;;;;8.23;76.00;101261.38;6216062;23;20032;-88
2022/05/30 03:44:04;;;;;;;1.40;1.30;;;;;;;8.23;76.08;101261.38;6216457;23;20001;-88
2022/05/30 03:46:31;;;;;;;4.30;1.40;;;;;;;8.23;76.18;101262.25;6216475;23;20004;-88
2022/05/30 03:48:59;;;;;;;3.90;1.50;;;;;;;8.25;76.17;101272.59;6215920;23;20023;-88
2022/05/30 03:51:25;;;;;;;1.85;1.50;;;;;;;8.24;76.26;101265.69;6215818;23;20378;-89
2022/05/30 03:53:51;;;;;;;2.20;1.43;;;;;;;8.24;76.30;101271.75;6216565;23;20028;-89
2022/05/30 03:56:19;;;;;;;2.25;1.17;;;;;;;8.24;76.69;101261.41;6216719;23;20139;-87
2022/05/30 03:58:44;;;;;;;1.85;1.33;;;;;;;8.24;76.57;101263.09;6215325;23;20066;-88
2022/05/30 04:01:10;;;;;;;1.60;1.50;;;;;;;8.25;76.31;101267.41;6216895;23;20004;-87
2022/05/30 04:03:36;;;;;;;2.15;1.55;;;;;;;8.26;76.48;101262.28;6216615;23;20063;-86
2022/05/30 04:06:01;;;;;;;1.30;1.27;;;;;;;8.27;76.78;101257.94;6216438;23;20000;-88
2022/05/30 04:08:27;;;;;;;1.70;1.60;;;;;;;8.28;76.51;101250.19;6216731;23;20004;-90
2022/05/30 04:10:52;;;;;;;2.23;1.60;;;;;;;8.31;76.66;101257.94;6216521;23;20012;-89
2022/05/30 04:13:17;;;;;;;1.53;1.43;;;;;;;8.35;76.75;101263.97;6215897;23;20056;-87
2022/05/30 04:15:43;;;;;;;1.60;1.50;;;;;;;8.35;76.80;101254.50;6216487;23;20410;-87
2022/05/30 04:18:08;;;;;;;1.40;1.30;;;;;;;8.38;76.75;101257.97;6216605;23;20028;-87
2022/05/30 04:20:36;;;;;;;1.47;1.40;;;;;;;8.40;76.99;101254.50;6215915;23;20100;-87
2022/05/30 04:23:02;;;;;;;1.58;1.40;;;;;;;8.42;76.96;101255.38;6216553;23;20015;-87
2022/05/30 04:25:27;;;;;;;1.50;1.40;;;;;;;8.45;76.84;101257.09;6217131;23;20000;-88
2022/05/30 04:27:53;;;;;;;1.63;1.40;;;;;;;8.47;77.17;101252.78;6215730;23;20013;-87
2022/05/30 04:30:18;;;;;;;1.63;1.40;;;;;;;8.48;76.97;101257.13;6216111;23;20004;-88
2022/05/30 04:32:45;;;;;;;1.07;1.07;;;;;;;8.47;77.09;101257.97;6215729;23;20118;-88
2022/05/30 04:35:11;;;;;;;2.20;1.30;;;;;;;8.48;76.82;101259.72;6216227;23;20005;-87
2022/05/30 04:37:36;;;;;;;2.78;1.70;;;;;;;8.47;76.72;101258.84;6216008;23;20303;-87
2022/05/30 04:40:02;;;;;;;1.60;1.50;;;;;;;8.49;76.45;101258.88;6214291;23;20019;-87
2022/05/30 04:42:27;;;;;;;1.90;1.73;;;;;;;8.50;76.86;101263.16;6185662;23;20100;-87
2022/05/30 04:44:52;;;;;;;1.70;1.60;;;;;;;8.48;76.83;101265.75;6186049;23;20032;-87
2022/05/30 04:47:18;;;;;;;2.00;1.58;;;;;;;8.46;76.64;101266.59;6185832;23;20068;-87
2022/05/30 04:49:45;;;;;;;2.53;1.80;;;;;;;8.45;76.82;101264.84;6185229;23;20005;-87
2022/05/30 04:52:10;;;;;;;1.70;1.60;;;;;;;8.42;76.92;101267.44;6184959;23;20005;-87
2022/05/30 04:54:36;;;;;;;2.53;1.83;;;;;;;8.39;76.67;101267.47;6185416;23;20008;-87
2022/05/30 04:57:01;;;;;;;3.67;1.90;;;;;;;8.41;76.96;101269.19;6185988;23;20318;-87
2022/05/30 04:59:27;;;;;;;2.37;1.80;;;;;;;8.44;76.92;101268.31;6186363;23;20011;-87
2022/05/30 05:01:54;;;;;;;1.80;1.70;;;;;;;8.50;77.09;101274.38;6184790;23;20015;-87
2022/05/30 05:04:20;;;;;;;2.63;1.80;;;;;;;8.55;77.27;101282.13;6185641;23;20001;-86
2022/05/30 05:06:45;;;;;;;1.60;1.50;;;;;;;8.62;77.39;101280.41;6185650;23;20399;-87
2022/05/30 05:09:16;;;;;;;1.50;1.40;;;;;;;8.68;77.39;101279.56;6185139;23;20012;-87
2022/05/30 05:11:42;;;;;;;2.15;1.63;;;;;;;8.73;77.06;101277.81;6185228;23;20036;-87
2022/05/30 05:14:08;;;;;;;1.50;1.40;;;;;;;8.79;77.22;101280.41;6184638;23;20449;-86
2022/05/30 05:16:33;;;;;;;1.65;1.55;;;;;;;8.86;77.17;101270.91;6184799;23;20012;-86
2022/05/30 05:19:01;;;;;;;1.20;1.20;;;;;;;8.92;77.27;101276.06;6185290;23;20025;-86
2022/05/30 05:21:33;;;;;;;1.60;1.50;;;;;;;8.95;77.17;101274.34;6186022;23;20044;-86
2022/05/30 05:23:59;;;;;;;1.60;1.50;;;;;;;9.03;76.83;101279.50;6183457;23;20430;-85
2022/05/30 05:26:25;;;;;;;2.00;1.57;;;;;;;9.10;77.32;101276.06;6185456;23;20005;-86
2022/05/30 05:28:54;;;;;;;1.30;1.30;;;;;;;9.19;76.93;101275.16;6184240;23;20252;-85
2022/05/30 05:31:29;;;;;;;1.40;1.30;;;;;;;9.26;78.09;101284.66;6185376;23;20036;-85
2022/05/30 05:33:57;;;;;;;2.35;1.70;;;;;;;9.28;76.83;101289.81;6184775;23;20370;-86
2022/05/30 05:36:26;;;;;;;1.80;1.70;;;;;;;9.34;76.87;101283.75;6184335;23;20085;-86
2022/05/30 05:38:51;;;;;;;1.77;1.60;;;;;;;9.41;76.52;101286.31;6185150;23;20327;-85
2022/05/30 05:41:17;;;;;;;1.80;1.60;;;;;;;9.46;76.84;101294.06;6199984;23;20028;-85
2022/05/30 05:43:43;;;;;;;1.60;1.50;;;;;;;9.48;76.17;101297.53;6213971;23;20418;-85
2022/05/30 05:46:23;;;;;;;4.53;1.90;;;;;;;9.43;77.39;101279.41;6215678;23;20264;-88
2022/05/30 05:48:51;;;;;;;2.25;1.80;;;;;;;9.43;76.20;101292.38;6215132;23;20448;-87
2022/05/30 05:51:18;;;;;;;1.98;1.63;;;;;;;9.42;76.15;101288.03;6214626;23;20473;-88
2022/05/30 05:53:46;;;;;;;2.75;1.50;;;;;;;9.50;76.05;101303.56;6214728;23;20041;-87
2022/05/30 05:56:21;;;;;;;1.63;1.52;;;;;;;9.55;76.87;101291.44;6215018;23;20000;-87
2022/05/30 05:58:46;;;;;;;2.90;1.80;;;;;;;9.60;76.18;101298.34;6213350;23;20004;-86
2022/05/30 06:01:21;;;;;;;2.30;1.80;;;;;;;9.60;76.28;101293.16;6215441;23;20023;-87
2022/05/30 06:03:46;;;;;;;2.53;1.90;;;;;;;9.58;76.95;101294.03;6214597;23;20506;-87
2022/05/30 06:06:12;;;;;;;1.37;1.30;;;;;;;9.65;76.34;101297.47;6214089;23;20036;-87
2022/05/30 06:08:38;;;;;;;2.17;1.80;;;;;;;10.27;77.87;101302.31;6215290;23;20007;-88
2022/05/30 06:11:08;;;;;;;3.60;2.10;;;;;;;11.77;71.65;101296.53;6216244;23;20436;-88
2022/05/30 06:13:34;;;;;;;3.40;1.98;;;;;;;12.39;71.06;101293.97;6217442;23;20005;-88
2022/05/30 06:16:00;;;;;;;4.40;2.40;;;;;;;12.50;65.26;101302.47;6217057;23;20000;-86
2022/05/30 06:18:25;;;;;;;6.83;2.90;;;;;;;12.35;69.69;101306.16;6216090;23;20008;-86
2022/05/30 06:20:57;;;;;;;5.57;2.50;;;;;;;12.48;67.50;101300.78;6217218;23;20076;-86
2022/05/30 06:23:22;;;;;;;3.97;2.00;;;;;;;12.58;68.83;101304.09;6217099;23;20076;-86
2022/05/30 06:25:47;;;;;;;3.07;1.80;;;;;;;12.75;69.18;101302.06;6216459;23;20028;-87
2022/05/30 06:28:12;;;;;;;2.73;1.27;;;;;;;13.09;69.36;101301.47;6216894;23;20080;-88
2022/05/30 06:30:38;;;;;;;9.03;2.37;;;;;;;13.59;60.55;101308.38;6215746;23;20023;-88
2022/05/30 06:33:03;;;;;;;4.63;1.97;;;;;;;13.84;59.88;101305.25;6215508;23;20325;-87
2022/05/30 06:35:28;;;;;;;5.20;2.10;;;;;;;14.10;60.88;101307.28;6216431;23;20016;-88
2022/05/30 06:37:54;;;;;;;3.83;1.90;;;;;;;14.32;61.12;101309.41;6217284;23;20064;-88
2022/05/30 06:40:20;;;;;;;2.97;1.48;;;;;;;14.51;62.24;101309.81;6216640;23;20004;-89
2022/05/30 06:42:46;;;;;;;1.47;1.30;;;;;;;14.69;63.44;101310.28;6216884;23;20335;-88
2022/05/30 06:45:12;;;;;;;3.03;1.70;;;;;;;14.84;59.99;101304.69;6217271;23;20024;-90
2022/05/30 06:47:38;;;;;;;1.50;1.40;;;;;;;15.00;62.74;101306.88;6217732;23;20004;-91
2022/05/30 06:50:04;;;;;;;2.22;1.38;;;;;;;15.19;61.93;101304.63;6217429;23;20239;-87
2022/05/30 06:52:30;;;;;;;1.13;1.02;;;;;;;15.33;61.24;101315.56;6217038;23;20377;-84
2022/05/30 06:54:55;;;;;;;2.17;1.43;;;;;;;15.47;59.21;101312.56;6215754;23;20005;-84
2022/05/30 07:00:05;;;;;;;5.53;1.98;;;;;;;15.40;53.53;101309.25;6217009;23;20019;-85
2022/05/30 07:02:30;;;;;;;4.18;2.28;;;;;;;15.17;58.98;101309.03;6216330;23;20005;-84
2022/05/30 07:04:55;;;;;;;2.63;1.60;;;;;;;15.16;61.33;101318.66;6216721;23;20016;-84
2022/05/30 07:07:21;;;;;;;4.10;1.93;;;;;;;15.14;53.82;101317.84;6215895;23;20494;-84
2022/05/30 07:09:46;;;;;;;2.47;1.47;;;;;;;15.05;60.79;101312.84;6217214;23;20009;-84
2022/05/30 07:12:11;;;;;;;2.57;1.20;;;;;;;15.25;58.45;101315.78;6217218;23;20012;-84
2022/05/30 07:14:38;;;;;;;1.30;0.70;;;;;;;15.38;58.56;101315.44;6216127;23;20000;-84
2022/05/30 07:17:04;;;;;;;;;;;;;;;15.52;59.47;101315.94;6217709;23;20365;-84
2022/05/30 07:19:30;;;;;;;0.82;0.80;;;;;;;15.60;59.83;101311.31;6216767;23;19912;-83
2022/05/30 07:21:57;;;;;;;1.30;0.88;;;;;;;15.66;59.45;101314.66;6215581;23;20377;-84
2022/05/30 07:24:22;;;;;;;2.08;0.70;;;;;;;15.83;55.33;101312.41;6217128;23;20016;-84
2022/05/30 07:26:51;;;;;;;0.87;0.70;;;;;;;15.93;56.05;101317.38;6216800;23;20005;-84
2022/05/30 07:29:16;;;;;;;3.05;1.15;;;;;;;15.71;48.45;101316.22;6214798;23;20011;-84
2022/05/30 07:31:41;;;;;;;1.60;0.80;;;;;;;15.51;56.92;101314.22;6215593;23;20005;-85
2022/05/30 07:34:07;;;;;;;2.17;1.10;;;;;;;15.63;55.24;101314.75;6216503;23;20007;-85
2022/05/30 07:36:32;;;;;;;1.50;0.97;;;;;;;15.79;52.17;101312.53;6216247;23;20414;-85
2022/05/30 07:38:58;;;;;;;1.13;0.70;;;;;;;15.61;52.88;101320.00;6216287;23;20338;-85
2022/05/30 07:41:26;;;;;;;4.27;1.60;;;;;;;15.08;49.38;101318.84;6216225;23;20005;-85
2022/05/30 07:43:51;;;;;;;3.70;1.30;;;;;;;14.87;53.84;101314.19;6214764;23;20492;-84
2022/05/30 07:46:20;;;;;;;1.70;0.90;;;;;;;15.02;55.60;101307.69;6216770;23;19997;-84
2022/05/30 07:49:00;;;;;;;1.30;0.80;;;;;;;15.18;53.34;101309.03;6216073;23;20012;-85
2022/05/30 07:51:26;;;;;;;1.83;0.80;;;;;;;15.08;55.99;101307.56;6215339;23;20044;-85
2022/05/30 07:53:51;;;;;;;0.67;0.60;;;;;;;15.00;54.55;101304.25;6215853;23;20075;-84
2022/05/30 07:56:18;;;;;;;1.50;0.60;;;;;;;14.84;54.66;101309.91;6216231;23;20079;-85
2022/05/30 07:58:44;;;;;;;0.80;0.50;;;;;;;14.61;55.71;101308.69;6214082;23;20031;-85
2022/05/30 08:01:16;;;;;;;2.75;1.15;;;;;;;14.36;49.97;101314.50;6216140;23;20017;-85
2022/05/30 08:03:42;;;;;;;2.75;1.42;;;;;;;13.97;51.07;101311.06;6214470;23;20012;-85
2022/05/30 08:06:12;;;;;;;3.07;0.97;;;;;;;13.82;54.54;101314.88;6217028;23;20059;-85
2022/05/30 08:08:41;;;;;;;0.98;0.90;;;;;;;13.69;52.93;101309.91;6216077;23;20023;-84
2022/05/30 08:11:06;;;;;;;1.88;0.88;;;;;;;13.62;52.94;101310.06;6214957;23;20005;-84
2022/05/30 08:13:38;;;;;;;1.57;0.80;;;;;;;13.61;51.33;101308.34;6216008;23;20399;-84
2022/05/30 08:16:04;;;;;;;0.82;0.70;;;;;;;13.67;55.25;101316.88;6215713;23;20422;-85
2022/05/30 08:18:30;;;;;;;2.95;1.30;;;;;;;13.48;52.91;101313.78;6214614;23;20062;-84
2022/05/30 08:20:56;;;;;;;1.40;1.13;;;;;;;13.49;54.61;101314.66;6215640;23;20004;-84
2022/05/30 08:23:23;;;;;;;2.20;1.30;;;;;;;13.43;51.94;101310.44;6215158;23;20056;-84
2022/05/30 08:25:49;;;;;;;1.58;1.25;;;;;;;13.46;53.84;101320.78;6214533;23;20001;-85
2022/05/30 08:28:14;;;;;;;1.63;0.97;;;;;;;13.62;53.26;101318.75;6215556;23;20012;-85
2022/05/30 08:30:40;;;;;;;1.83;0.90;;;;;;;13.78;54.01;101313.19;6215355;23;20004;-82
2022/05/30 08:33:14;;;;;;;0.83;0.83;;;;;;;14.06;53.65;101308.22;6214803;23;20361;-83
2022/05/30 08:35:45;;;;;;;5.00;1.77;;;;;;;14.39;47.58;101310.97;6215521;23;20239;-83
2022/05/30 08:38:13;;;;;;;2.83;1.50;;;;;;;14.51;50.59;101302.00;6215536;23;20005;-83
2022/05/30 08:43:37;;;;;;;3.85;1.77;;;;;;;14.46;46.01;101322.13;6215577;23;20020;-83
2022/05/30 08:46:36;;;;;;;3.03;1.17;;;;;;;14.42;49.58;101316.13;6214795;23;20066;-83
2022/05/30 08:49:10;;;;;;;2.78;1.40;;;;;;;14.63;52.13;101319.97;6215751;23;20009;-83
2022/05/30 08:52:00;;;;;;;1.00;0.90;;;;;;;14.98;52.09;101317.38;6215639;23;20130;-83
2022/05/30 08:54:58;;;;;;;0.80;0.80;;;;;;;15.13;51.63;101318.72;6214902;23;20136;-82
2022/05/30 08:57:34;;;;;;;3.75;1.65;;;;;;;14.89;46.21;101313.25;6215687;23;20082;-83
2022/05/30 09:00:23;;;;;;;3.03;1.38;;;;;;;14.52;46.38;101324.59;6214578;23;20011;-82
2022/05/30 09:02:59;;;;;;;3.70;1.70;;;;;;;14.13;49.12;101324.63;6215446;23;20008;-82
2022/05/30 09:05:33;;;;;;;5.25;2.00;;;;;;;13.58;49.32;101324.91;6214796;23;20430;-85
2022/05/30 09:08:03;;;;;;;5.15;1.70;;;;;;;13.39;51.83;101321.78;6208321;23;20009;-84
2022/05/30 09:10:40;;;;;;;2.65;1.60;;;;;;;13.52;52.86;101330.22;6215441;23;20033;-85
2022/05/30 09:13:17;;;;;;;3.33;1.60;;;;;;;13.56;52.91;101331.91;6215434;23;20019;-84
2022/05/30 09:15:52;;;;;;;1.30;1.10;;;;;;;13.68;52.32;101328.19;6213786;23;20370;-84
2022/05/30 09:18:28;;;;;;;1.20;1.10;;;;;;;13.80;53.32;101324.47;6215178;23;20027;-84
2022/05/30 09:20:54;;;;;;;2.30;1.50;;;;;;;13.81;49.40;101331.41;6213785;23;20001;-82
2022/05/30 09:23:23;;;;;;;2.53;1.25;;;;;;;13.65;51.47;101331.72;6215179;23;20084;-84
2022/05/30 09:26:00;;;;;;;1.10;1.00;;;;;;;13.83;52.51;101327.84;6215327;23;20381;-83
2022/05/30 09:28:30;;;;;;;1.60;1.00;;;;;;;14.39;53.16;101328.41;6214005;23;20425;-83
2022/05/30 09:31:18;;;;;;;3.17;1.27;;;;;;;14.90;49.97;101319.34;6215178;23;20357;-88
2022/05/30 09:33:47;;;;;;;1.05;0.85;;;;;;;15.37;50.44;101322.41;6215455;23;20012;-86
2022/05/30 09:36:24;;;;;;;0.80;0.80;;;;;;;15.70;48.36;101318.91;6215046;23;20005;-87
2022/05/30 09:39:03;;;;;;;1.05;0.80;;;;;;;15.66;48.58;101317.25;6215689;23;20009;-88
2022/05/30 09:41:46;;;;;;;1.23;0.80;;;;;;;15.49;44.91;101320.34;6215025;23;20012;-76
2022/05/30 09:44:17;;;;;;;2.00;0.95;;;;;;;15.34;47.93;101319.91;6213897;23;20059;-84
2022/05/30 09:46:52;;;;;;;1.60;1.05;;;;;;;15.29;42.49;101325.28;6214923;23;19997;-83
2022/05/30 09:49:24;;;;;;;2.33;0.85;;;;;;;15.08;42.31;101320.63;6214339;23;20005;-84
2022/05/30 09:51:55;;;;;;;0.55;0.50;;;;;;;15.14;43.40;101323.06;6214706;23;20036;-83
2022/05/30 09:54:23;;;;;;;1.50;0.80;;;;;;;15.38;46.33;101323.28;6214679;23;20019;-82
2022/05/30 09:56:52;;;;;;;1.75;0.90;;;;;;;15.75;46.36;101327.47;6213507;23;20363;-83
2022/05/30 09:59:38;;;;;;;1.02;0.80;;;;;;;16.30;41.53;101331.97;6215158;23;20005;-84
2022/05/30 10:02:36;;;;;;;1.13;1.00;;;;;;;16.67;44.53;101326.41;6215411;23;19996;-84
2022/05/30 10:05:26;;;;;;;1.35;0.80;;;;;;;17.06;45.88;101319.88;6213180;23;20009;-83
2022/05/30 10:07:58;;;;;;;0.55;0.50;;;;;;;17.49;45.76;101314.88;6214769;23;20406;-82
2022/05/30 10:10:38;;;;;;;0.60;0.60;;;;;;;17.90;38.75;101317.69;6214055;23;20660;-83
2022/05/30 10:13:06;;;;;;;2.47;1.23;;;;;;;17.97;39.22;101320.09;6215322;23;20005;-84
2022/05/30 10:15:31;;;;;;;1.60;0.73;;;;;;;17.92;43.01;101320.25;6214900;23;20032;-85
2022/05/30 10:18:22;;;;;;;1.43;1.00;;;;;;;17.60;41.84;101317.94;6214075;23;20016;-84
2022/05/30 10:21:22;;;;;;;0.75;0.70;;;;;;;17.44;43.16;101322.91;6214416;23;20011;-85
2022/05/30 10:30:41;;;;;;;1.58;0.60;;;;;;;17.09;46.87;101317.16;6215015;23;20342;-84
2022/05/30 10:33:31;;;;;;;0.75;0.60;;;;;;;16.89;46.85;101316.97;6214289;23;20012;-84
2022/05/30 10:36:06;;;;;;;1.55;0.85;;;;;;;16.60;46.15;101331.88;6214733;23;20027;-84
2022/05/30 10:38:59;;;;;;;1.42;0.70;;;;;;;16.39;47.57;101329.06;6214156;23;20009;-83
2022/05/30 10:41:37;;;;;;;0.30;0.30;;;;;;;16.31;47.62;101331.06;6214573;23;20017;-84
2022/05/30 10:44:22;;;;;;;0.68;0.52;;;;;;;16.31;48.29;101331.06;6214419;23;20005;-84
2022/05/30 10:47:32;;;;;;;0.50;0.50;;;;;;;16.36;48.30;101335.25;6213228;23;20032;-83
2022/05/30 10:50:11;;;;;;;0.30;0.30;;;;;;;16.45;47.92;101341.09;6214767;23;20012;-84
2022/05/30 10:52:52;;;;;;;1.42;0.47;;;;;;;16.60;48.37;101340.63;6213500;23;20793;-84
2022/05/30 10:55:24;;;;;;;0.20;0.20;;;;;;;16.79;48.10;101338.22;6216357;23;20001;-84
2022/05/30 10:57:59;;;;;;;0.43;0.38;;;;;;;17.28;45.49;101329.59;6216231;23;20005;-85
2022/05/30 11:01:00;;;;;;;0.30;0.30;;;;;;;17.89;47.08;101336.13;6215846;23;20020;-84
2022/05/30 11:03:42;;;;;;;1.00;0.60;;;;;;;18.43;46.01;101338.44;6195570;23;20326;-84
2022/05/30 11:06:24;;;;;;;0.65;0.50;;;;;;;18.90;46.36;101330.38;6216492;23;20448;-84
2022/05/30 11:09:04;;;;;;;1.17;0.95;;;;;;;19.28;44.36;101333.13;6216931;23;20072;-84
2022/05/30 11:11:35;;;;;;;0.60;0.50;;;;;;;19.60;42.33;101330.81;6215973;23;20456;-84
2022/05/30 11:14:08;;;;;;;1.02;0.65;;;;;;;19.79;39.38;101322.09;6215920;23;20409;-84
2022/05/30 11:16:56;;;;;;;0.60;0.60;;;;;;;20.00;42.83;101324.66;6217371;23;20096;-83
2022/05/30 11:19:23;;;;;;;0.50;0.50;;;;;;;20.14;43.68;101335.41;6217557;23;20001;-83
2022/05/30 11:22:09;;;;;;;1.30;0.80;;;;;;;19.83;44.12;101331.53;6216532;23;20333;-84
2022/05/30 11:24:37;;;;;;;2.95;0.90;;;;;;;19.50;43.23;101331.31;6217892;23;20008;-84
2022/05/30 11:27:31;;;;;;;0.88;0.80;;;;;;;19.21;44.61;101330.81;6217168;23;20000;-85
2022/05/30 11:30:27;;;;;;;1.27;0.63;;;;;;;18.90;44.58;101329.50;6216366;23;20005;-84
2022/05/30 11:33:17;;;;;;;1.80;0.52;;;;;;;18.60;45.38;101325.47;6215880;23;20004;-84
2022/05/30 11:36:07;;;;;;;0.70;0.38;;;;;;;18.44;45.56;101330.50;6215782;23;20005;-86
2022/05/30 11:39:09;;;;;;;1.27;0.40;;;;;;;18.25;46.09;101330.38;6216881;23;20008;-84
2022/05/30 11:41:44;;;;;;;1.02;0.50;;;;;;;18.12;46.62;101326.53;6215920;23;20573;-84
2022/05/30 11:44:24;;;;;;;0.57;0.40;;;;;;;17.95;46.56;101327.16;6216320;23;20495;-84
2022/05/30 11:47:10;;;;;;;0.45;0.30;;;;;;;17.84;47.10;101333.69;6215589;23;20004;-84
2022/05/30 11:49:44;;;;;;;0.20;0.20;;;;;;;17.73;45.12;101328.84;6215532;23;20013;-84
2022/05/30 11:52:18;;;;;;;0.20;0.20;;;;;;;17.66;46.80;101332.63;6216404;23;20015;-84
2022/05/30 11:54:51;;;;;;;0.45;0.38;;;;;;;17.56;46.98;101326.00;6215456;23;20073;-83
2022/05/30 11:57:27;;;;;;;0.60;0.40;;;;;;;17.56;46.93;101331.25;6215259;23;20012;-84
2022/05/30 12:00:25;;;;;;;1.05;0.50;;;;;;;17.58;45.45;101324.16;6216079;23;20070;-83
2022/05/30 12:03:36;;;;;;;0.35;0.35;;;;;;;17.55;44.07;101329.53;6202292;23;20032;-84
2022/05/30 12:06:18;;;;;;;1.63;0.65;;;;;;;17.42;40.58;101329.97;6213054;23;20009;-85
2022/05/30 12:08:46;;;;;;;0.98;0.68;;;;;;;17.17;44.12;101332.59;6214666;23;20001;-84